Imperial Beach, CA (91933)

10:56 PM PDT on September 01, 2014 (GMT -0700)
Hilltop | Change Station
CLOSE
Current Station
Personal Weather Station
Location: Chula Vista, CA
Elevation: 195 ft
Nearby Weather Stations

Elev 195 ft 32.63 °N, 117.06 °W | Updated 51 seconds ago

Partly Cloudy
Partly Cloudy
68.2 °F
Feels Like 68.2 °F
N
1.0
Wind Variable Wind from South
Gusts 3.0 mph

Today
High -- | Low -- °F
--% Chance of Precip.
Yesterday
High -- | Low -- °F
Precip. -- in
6:23 AM 7:12 PM
Waxing Crescent, 48% visible
Pressure 29.84 in
Visibility 10.0 miles
Clouds Few 1700 ft
Dew Point 64 °F
Humidity 80%
Rainfall 0.00 in
Snow Depth Not available.
UV 0 out of 12
Pollen 8.30 out of 12
Ozone Good
PM2.5 Good
Flu Activity Not available.
SPECI KNRS 020515Z AUTO 17003KT 10SM FEW017 19/17 A2984 RMK AO2 T01890167 $

More Conditions Fewer Conditions

Pressure 29.84 in
Visibility 10.0 miles
Clouds Few 1700 ft
Dew Point 64 °F
Humidity 80%
Rainfall 0.00 in
Snow Depth Not available.
UV 0 out of 12
Pollen 8.30 out of 12
Ozone Good
PM2.5 Good
Flu Activity Not available.
SPECI KNRS 020515Z AUTO 17003KT 10SM FEW017 19/17 A2984 RMK AO2 T01890167 $

More Conditions Fewer Conditions

10-Day Weather Forecast

Almanac

Astronomy

Sep. 01, 2014 Rise Set
Actual Time 6:23 AM PDT 7:12 PM PDT
Civil Twilight 5:58 AM PDT 7:37 PM PDT
Nautical Twilight 5:28 AM PDT 8:07 PM PDT
Astronomical Twilight 4:58 AM PDT 8:37 PM PDT
Moon 12:51 PM PDT (9/1) 11:40 PM PDT (9/1)
Length of Visible Light 13h 39m
Length of Day
12h 49m
Tomorrow will be 1m 54s shorter.
Waxing Crescent, 48% of the Moon is Illuminated
Sep 2
Waxing Crescent
Sep 2
First Quarter
Sep 8
Full
Sep 15
Last Quarter
Sep 24
New

Yesterday's Extremes

State Highs State Lows

Community

WunderPhotos

Upload Photos

1,749,579 photos uploaded!

WunderBlogs® & News

Nearby

Air Quality

  Air Quality AQ Index Pollutant
Yesterday Moderate
PM2.5
Yesterday Good
OZONE
Current Good
PM2.5
Current Good
OZONE
Monday Good
OZONE
Tuesday Good
PM2.5

Snow Depth

Station Depth Elevation
Leavitt Lake 0 in 9400 ft
Leavitt Meadows 0 in 7200 ft
Summit Meadow 0 in 9122 ft
Monitor Pass 0 in 8350 ft
Blue Lakes 0 in 8000 ft

Earthquake Activity

City Distance Mag. Time & Date
Holtville, California 98 miles 2.5 5:43 PM PDT
2014-09-01
Holtville, California 99 miles 2.5 5:26 PM PDT
2014-09-01
Malibu, California 139 miles 2.5 8:11 AM PDT
2014-08-30
Minimum magnitude displayed is 2.5.

Coastal Water Temperatures

Place Temperature
La Jolla, CA 71.1 °F
San Diego, CA 75.9 °F

Nearby Weather Stations